createdAt,value
2022-09-30T00:03:20.377Z,4.81
2022-09-30T00:08:23.778Z,4.77
2022-09-30T00:13:27.622Z,4.62
2022-09-30T00:18:31.635Z,4.50
2022-09-30T00:23:38.118Z,4.44
2022-09-30T00:28:42.337Z,4.41
2022-09-30T00:34:06.841Z,4.39
2022-09-30T00:39:14.144Z,4.37
2022-09-30T00:44:45.887Z,4.38
2022-09-30T00:49:49.516Z,4.39
2022-09-30T00:54:54.064Z,4.40
2022-09-30T00:59:57.883Z,4.51
2022-09-30T01:05:01.136Z,4.66
2022-09-30T01:10:04.336Z,4.81
2022-09-30T01:15:08.127Z,4.91
2022-09-30T01:21:19.271Z,5.00
2022-09-30T01:26:46.448Z,5.22
2022-09-30T01:32:04.918Z,5.43
2022-09-30T01:37:31.554Z,5.57
2022-09-30T01:43:00.315Z,5.70
2022-09-30T01:48:21.532Z,5.83
2022-09-30T01:53:25.115Z,5.94
2022-09-30T01:58:45.457Z,6.01
2022-09-30T02:03:53.787Z,6.08
2022-09-30T02:09:07.859Z,6.11
2022-09-30T02:14:41.678Z,6.10
2022-09-30T02:19:57.246Z,6.10
2022-09-30T02:25:02.748Z,6.11
2022-09-30T02:30:09.612Z,6.15
2022-09-30T02:35:27.113Z,6.20
2022-09-30T02:40:44.787Z,6.25
2022-09-30T02:46:10.675Z,6.29
2022-09-30T02:51:19.598Z,6.33
2022-09-30T02:56:48.944Z,6.38
2022-09-30T03:01:52.247Z,6.44
2022-09-30T03:06:55.820Z,6.50
2022-09-30T03:12:33.111Z,6.55
2022-09-30T03:17:45.445Z,6.60
2022-09-30T03:23:27.766Z,6.65
2022-09-30T03:28:38.920Z,6.70
2022-09-30T03:33:52.687Z,6.72
2022-09-30T03:39:03.062Z,6.72
2022-09-30T03:44:15.212Z,6.74
2022-09-30T03:49:28.627Z,6.75
2022-09-30T03:54:32.450Z,6.76
2022-09-30T03:59:35.686Z,6.76
2022-09-30T04:04:43.027Z,6.76
2022-09-30T04:09:46.361Z,6.78
2022-09-30T04:14:49.615Z,6.79
2022-09-30T04:19:53.248Z,6.82
2022-09-30T04:24:56.554Z,6.85
2022-09-30T04:29:59.825Z,6.88
2022-09-30T04:35:03.882Z,6.90
2022-09-30T04:40:07.552Z,6.91
2022-09-30T04:45:13.045Z,6.92
2022-09-30T04:50:16.471Z,6.94
2022-09-30T04:55:19.924Z,6.97
2022-09-30T05:00:23.243Z,7.00
2022-09-30T05:05:26.492Z,7.05
2022-09-30T05:10:30.273Z,7.12
2022-09-30T05:15:35.316Z,7.15
2022-09-30T05:20:38.594Z,7.22
2022-09-30T05:25:42.404Z,7.31
2022-09-30T05:30:47.047Z,7.40
2022-09-30T05:35:50.437Z,7.52
2022-09-30T05:40:54.809Z,7.61
2022-09-30T05:45:58.090Z,7.75
2022-09-30T05:51:01.873Z,7.91
2022-09-30T05:56:12.303Z,8.04
2022-09-30T06:01:17.414Z,8.19
2022-09-30T06:06:21.899Z,8.31
2022-09-30T06:11:25.536Z,8.43
2022-09-30T06:16:30.086Z,8.50
2022-09-30T06:21:33.405Z,8.53
2022-09-30T06:26:36.739Z,8.60
2022-09-30T06:31:40.161Z,8.67
2022-09-30T06:36:43.539Z,8.76
2022-09-30T06:41:47.051Z,8.84
2022-09-30T06:46:55.997Z,8.90
2022-09-30T06:52:00.802Z,9.06
2022-09-30T06:57:04.031Z,9.25
2022-09-30T07:02:07.238Z,9.35
2022-09-30T07:07:11.451Z,9.43
2022-09-30T07:12:14.707Z,9.49
2022-09-30T07:17:17.986Z,9.53
2022-09-30T07:22:28.313Z,9.60
2022-09-30T07:27:33.013Z,9.70
2022-09-30T07:32:37.013Z,9.77
2022-09-30T07:37:40.271Z,9.85
2022-09-30T07:42:46.233Z,9.96
2022-09-30T07:47:53.730Z,10.02
2022-09-30T07:52:57.975Z,10.11
2022-09-30T07:58:02.188Z,10.20
2022-09-30T08:03:05.661Z,10.27
2022-09-30T08:08:09.090Z,10.44
2022-09-30T08:13:14.266Z,10.62
2022-09-30T08:18:19.291Z,10.81
2022-09-30T08:23:23.170Z,11.07
2022-09-30T08:28:26.401Z,11.27
2022-09-30T08:33:29.664Z,11.53
2022-09-30T08:38:33.778Z,11.77
2022-09-30T08:44:05.178Z,11.95
2022-09-30T08:49:54.578Z,12.03
2022-09-30T08:54:58.175Z,12.05
2022-09-30T09:00:10.501Z,12.12
2022-09-30T09:05:23.728Z,12.20
2022-09-30T09:10:28.281Z,12.33
2022-09-30T09:15:44.098Z,12.53
2022-09-30T09:20:54.347Z,12.64
2022-09-30T09:25:59.100Z,12.90
2022-09-30T09:31:04.521Z,13.14
2022-09-30T09:36:49.843Z,13.42
2022-09-30T09:42:05.103Z,13.66
2022-09-30T09:47:17.630Z,13.98
2022-09-30T09:52:40.196Z,14.32
2022-09-30T09:57:43.519Z,14.45
2022-09-30T10:02:59.535Z,14.66
2022-09-30T10:08:16.374Z,14.81
2022-09-30T10:13:27.060Z,14.87
2022-09-30T10:18:38.029Z,14.68
2022-09-30T10:23:41.611Z,14.65
2022-09-30T10:28:55.378Z,14.70
2022-09-30T10:34:17.520Z,14.89
2022-09-30T10:39:34.857Z,14.97
2022-09-30T10:44:55.749Z,15.23
2022-09-30T10:50:07.321Z,15.60
2022-09-30T10:55:19.875Z,15.91
2022-09-30T11:00:25.557Z,16.20
2022-09-30T11:05:47.828Z,16.34
2022-09-30T11:11:08.842Z,16.12
2022-09-30T11:16:19.577Z,16.23
2022-09-30T11:21:28.102Z,16.57
2022-09-30T11:26:54.080Z,16.78
2022-09-30T11:32:19.693Z,16.88
2022-09-30T11:37:42.463Z,16.90
2022-09-30T11:43:17.012Z,16.69
2022-09-30T11:48:43.033Z,16.60
2022-09-30T11:53:58.668Z,16.56
2022-09-30T11:59:06.982Z,16.57
2022-09-30T12:04:21.297Z,16.67
2022-09-30T12:10:01.817Z,16.98
2022-09-30T12:15:16.051Z,16.83
2022-09-30T12:20:39.878Z,16.71
2022-09-30T12:25:56.842Z,16.88
2022-09-30T12:31:54.866Z,16.85
2022-09-30T12:37:58.615Z,16.54
2022-09-30T12:43:43.226Z,16.44
2022-09-30T12:49:08.055Z,16.40
2022-09-30T12:54:30.623Z,16.53
2022-09-30T12:59:45.279Z,16.51
2022-09-30T13:05:24.500Z,16.51
2022-09-30T13:10:36.999Z,16.58
2022-09-30T13:15:56.730Z,16.68
2022-09-30T13:21:05.979Z,16.90
2022-09-30T13:26:27.985Z,16.99
2022-09-30T13:31:52.783Z,17.04
2022-09-30T13:37:05.767Z,17.13
2022-09-30T13:42:21.802Z,17.07
2022-09-30T13:47:45.470Z,17.17
2022-09-30T13:53:23.323Z,16.99
2022-09-30T13:58:56.408Z,16.72
2022-09-30T14:04:12.338Z,16.31
2022-09-30T14:09:42.347Z,15.99
2022-09-30T14:15:09.113Z,15.95
2022-09-30T14:20:32.235Z,16.02
2022-09-30T14:26:01.533Z,16.23
2022-09-30T14:36:34.339Z,16.26
2022-09-30T14:42:03.470Z,16.26
2022-09-30T14:47:17.193Z,16.47
2022-09-30T14:52:53.577Z,16.62
2022-09-30T14:58:21.872Z,16.66
2022-09-30T15:04:02.399Z,16.60
2022-09-30T15:09:18.192Z,16.29
2022-09-30T15:14:27.160Z,16.04
2022-09-30T15:19:44.853Z,15.73
2022-09-30T15:24:49.257Z,15.40
2022-09-30T15:29:56.606Z,15.15
2022-09-30T15:35:11.723Z,14.92
2022-09-30T15:40:39.611Z,14.67
2022-09-30T15:45:44.563Z,14.40
2022-09-30T15:50:50.032Z,14.03
2022-09-30T15:56:17.105Z,13.69
2022-09-30T16:01:46.618Z,13.32
2022-09-30T16:07:32.230Z,12.92
2022-09-30T16:12:41.823Z,12.59
2022-09-30T16:18:02.658Z,12.34
2022-09-30T16:23:13.159Z,12.09
2022-09-30T16:28:18.641Z,11.83
2022-09-30T16:33:22.348Z,11.55
2022-09-30T16:38:30.684Z,11.27
2022-09-30T16:43:36.714Z,10.96
2022-09-30T16:48:40.097Z,10.76
2022-09-30T16:53:48.133Z,10.61
2022-09-30T16:58:51.765Z,10.46
2022-09-30T17:04:01.206Z,10.29
2022-09-30T17:09:10.213Z,10.17
2022-09-30T17:14:19.269Z,10.05
2022-09-30T17:19:25.105Z,9.90
2022-09-30T17:24:32.757Z,9.79
2022-09-30T17:29:44.392Z,9.70
2022-09-30T17:34:47.852Z,9.60
2022-09-30T17:39:55.749Z,9.48
2022-09-30T17:45:02.622Z,9.35
2022-09-30T17:50:16.362Z,9.22
2022-09-30T17:55:34.391Z,9.10
2022-09-30T18:00:44.192Z,9.05
2022-09-30T18:06:01.494Z,9.03
2022-09-30T18:11:13.875Z,8.98
2022-09-30T18:16:19.058Z,8.85
2022-09-30T18:21:24.493Z,8.80
2022-09-30T18:26:46.392Z,8.76
2022-09-30T18:31:53.031Z,8.69
2022-09-30T18:36:57.103Z,8.61
2022-09-30T18:42:07.255Z,8.54
2022-09-30T18:47:18.537Z,8.49
2022-09-30T18:52:24.746Z,8.42
2022-09-30T18:57:36.148Z,8.35
2022-09-30T19:02:48.952Z,8.24
2022-09-30T19:07:57.531Z,8.13
2022-09-30T19:13:18.040Z,8.01
2022-09-30T19:18:26.052Z,7.94
2022-09-30T19:23:33.207Z,7.95
2022-09-30T19:28:39.707Z,8.04
2022-09-30T19:33:56.004Z,8.09
2022-09-30T19:39:11.221Z,8.10
2022-09-30T19:44:20.552Z,8.13
2022-09-30T19:49:26.196Z,8.20
2022-09-30T19:54:40.980Z,8.25
2022-09-30T19:59:45.895Z,8.29
2022-09-30T20:04:54.745Z,8.31
2022-09-30T20:10:05.298Z,8.31
2022-09-30T20:15:34.532Z,8.32
2022-09-30T20:20:49.957Z,8.30
2022-09-30T20:25:57.402Z,8.26
2022-09-30T20:31:12.027Z,8.23
2022-09-30T20:36:20.577Z,8.20
2022-09-30T20:41:37.531Z,8.18
2022-09-30T20:46:42.790Z,8.16
2022-09-30T20:52:14.232Z,8.15
2022-09-30T20:57:19.422Z,8.16
2022-09-30T21:02:27.801Z,8.17
2022-09-30T21:07:31.421Z,8.16
2022-09-30T21:12:44.787Z,8.15
2022-09-30T21:18:04.963Z,8.16
2022-09-30T21:23:09.828Z,8.19
2022-09-30T21:28:16.108Z,8.22
2022-09-30T21:33:26.237Z,8.25
2022-09-30T21:38:30.894Z,8.27
2022-09-30T21:43:38.305Z,8.30
2022-09-30T21:48:46.916Z,8.31
2022-09-30T21:53:52.287Z,8.34
2022-09-30T21:58:58.432Z,8.34
2022-09-30T22:04:01.856Z,8.35
2022-09-30T22:09:16.270Z,8.36
2022-09-30T22:14:20.208Z,8.36
2022-09-30T22:19:24.583Z,8.38
2022-09-30T22:24:28.385Z,8.40
2022-09-30T22:29:32.812Z,8.41
2022-09-30T22:34:57.262Z,8.40
2022-09-30T22:40:01.150Z,8.40
2022-09-30T22:45:06.722Z,8.38
2022-09-30T22:50:10.043Z,8.35
2022-09-30T22:55:15.176Z,8.32
2022-09-30T23:00:19.371Z,8.29
2022-09-30T23:05:29.033Z,8.27
2022-09-30T23:10:33.053Z,8.22
2022-09-30T23:15:37.230Z,8.16
2022-09-30T23:20:54.298Z,8.11
2022-09-30T23:26:08.843Z,8.09
2022-09-30T23:31:18.682Z,8.06
2022-09-30T23:36:27.495Z,8.04
2022-09-30T23:41:37.017Z,8.02
2022-09-30T23:47:01.493Z,8.01
2022-09-30T23:52:13.770Z,7.95
2022-09-30T23:57:25.891Z,7.93
